Azalea, Oregon
Current Conditions -  °F | °C
As of 10:16 AM on Tuesday 21 Oct 2014 (Local Time) from KSXT Reporting Station
Haze Haze  
Wind Chill: 34°   Ceiling: 400
Heat Index: 41°   Visibility: 3mi
Dew Point: 41°   Wind: 12mph
Humidity: 100%   Direction: 180°S
Pressure: 30.08"   Gusts: 20mph
Location:  42.8°N, 123.26°W
Report Text: KSXT 211716Z AUTO 18010G17KT 3SM BR OVC004 05/05 A3008 RMK AO2 P0001 T00500050
Loading
Personal Weather Stations






























Interactive Weather Map New forecast layout! Learn more

10-Day Weather Forecast

Advertisements
Track Severe Weather on mobile